Aérodrome :
LOGIN :

S'inscrire | Disclaimer

   EN    FR    IT 

 










Légende :    VFR   VFR Marginal   IFR   IFR Intensif   IFR Très Intensif
Visi : 
Plafond : 
>= 8 km
>= 3000ft
5 à 8 km
1000 à 3000 ft
1500m à 5 km
500 à 1000 ft
800 à 1500m
200 à 500 ft
< 800m
< 200 ft
Symboles :   Orages  Brouillard  Fortes neiges  Fortes précipitations  Vent > 20 kt
SIGMETs :   Divers  Orages  Givrage  Turbulence  Onde Orograph.  Cendres Volcan.







- Altitude de l'aérodrome : 187 ft


ETNW - Wunstorf AB

DERNIER METAR :
  • 210420Z AUTO 27004KT //// // ////// 00/M00 Q1007 ///

METARs EXPIRÉS :
  • 210320Z AUTO 28003KT //// // ////// M00/M01 Q1006 ///
  • 210220Z AUTO 24002KT //// // ////// M00/M01 Q1005 ///

TAF TAF ETNW
Valide du 21 à 00h jusqu'au 22 à 00h UTC


202318Z 2100/2124 13008KT 8000 NSW SCT015 BKN040
TEMPO 2100/2112 03005KT 3000 -SN BKN005 BKN010
PROB30 2100/2110 35002KT 0500 FZFG BKN001 CANCEL BY ETGL
Pas de NOTAMs connus pour ce terrain.



MET'MAP, la Météo Aéronautique d'un coup d'oeil ! - Copyright ORBIFLY Décembre 2007 - Disclaimer

ORBIFLY MET'MAP TEAM :

Programmation & Développement : Alexandra Zaïnal
Conception & Développement : Baudouin d'Aumeries
Co-Programmation & Développement : Marc-Olivier Méhu
Soutien technique & logistique : Manuel Goepfert

Contact : metmap@orbifly.com




SOURCES & CREDITS :

   NOAA